createdAt,value
2023-02-11T00:02:15.527Z,251.35
2023-02-11T00:04:42.035Z,259.77
2023-02-11T00:07:08.499Z,253.27
2023-02-11T00:09:35.015Z,255.90
2023-02-11T00:12:01.501Z,231.68
2023-02-11T00:14:28.016Z,221.00
2023-02-11T00:16:54.528Z,191.30
2023-02-11T00:19:21.013Z,184.18
2023-02-11T00:21:47.431Z,165.98
2023-02-11T00:24:13.864Z,181.00
2023-02-11T00:26:40.258Z,167.07
2023-02-11T00:29:06.701Z,166.60
2023-02-11T00:31:33.518Z,164.65
2023-02-11T00:34:00.120Z,175.90
2023-02-11T00:36:27.342Z,167.20
2023-02-11T00:38:54.380Z,156.43
2023-02-11T00:41:21.226Z,172.10
2023-02-11T00:43:47.994Z,159.80
2023-02-11T00:46:15.123Z,170.73
2023-02-11T00:48:41.781Z,156.95
2023-02-11T00:51:08.258Z,169.60
2023-02-11T00:53:35.176Z,222.82
2023-02-11T00:56:01.764Z,174.70
2023-02-11T00:58:28.627Z,202.60
2023-02-11T01:00:55.743Z,210.18
2023-02-11T01:03:22.554Z,188.50
2023-02-11T01:05:49.350Z,186.05
2023-02-11T01:08:16.120Z,192.85
2023-02-11T01:10:44.051Z,181.98
2023-02-11T01:13:10.579Z,199.15
2023-02-11T01:15:37.067Z,192.23
2023-02-11T01:18:04.486Z,188.75
2023-02-11T01:20:31.033Z,199.82
2023-02-11T01:22:57.510Z,191.73
2023-02-11T01:25:23.944Z,197.27
2023-02-11T01:27:50.414Z,213.23
2023-02-11T01:30:16.895Z,228.57
2023-02-11T01:32:43.375Z,204.27
2023-02-11T01:35:09.973Z,225.93
2023-02-11T01:37:36.468Z,206.07
2023-02-11T01:40:03.742Z,210.73
2023-02-11T01:42:30.214Z,212.80
2023-02-11T01:44:57.597Z,207.18
2023-02-11T01:47:24.092Z,218.75
2023-02-11T01:49:52.555Z,219.30
2023-02-11T01:52:20.129Z,202.07
2023-02-11T01:55:06.387Z,197.35
2023-02-11T01:57:34.667Z,178.38
2023-02-11T02:00:04.441Z,184.07
2023-02-11T02:02:44.157Z,198.05
2023-02-11T02:05:16.912Z,194.90
2023-02-11T02:07:49.554Z,185.27
2023-02-11T02:10:18.752Z,190.18
2023-02-11T02:12:45.208Z,194.50
2023-02-11T02:15:31.922Z,173.65
2023-02-11T02:17:58.929Z,162.75
2023-02-11T02:20:43.846Z,181.90
2023-02-11T02:23:16.345Z,174.85
2023-02-11T02:25:58.213Z,163.35
2023-02-11T02:31:10.298Z,163.60
2023-02-11T02:33:40.736Z,149.80
2023-02-11T02:36:26.024Z,172.43
2023-02-11T02:38:55.277Z,167.88
2023-02-11T02:41:24.688Z,167.95
2023-02-11T02:43:51.575Z,159.77
2023-02-11T02:46:20.021Z,172.25
2023-02-11T02:48:46.913Z,182.57
2023-02-11T02:51:19.165Z,182.00
2023-02-11T02:53:55.332Z,172.07
2023-02-11T02:56:21.720Z,179.98
2023-02-11T02:58:56.368Z,167.30
2023-02-11T03:01:49.186Z,166.85
2023-02-11T03:04:35.851Z,153.93
2023-02-11T03:07:21.224Z,155.70
2023-02-11T03:10:00.673Z,156.70
2023-02-11T03:12:29.083Z,157.77
2023-02-11T03:14:55.492Z,151.25
2023-02-11T03:17:23.728Z,175.70
2023-02-11T03:19:50.772Z,153.57
2023-02-11T03:22:20.120Z,155.57
2023-02-11T03:24:46.815Z,149.75
2023-02-11T03:27:20.858Z,151.57
2023-02-11T03:29:54.419Z,150.65
2023-02-11T03:32:36.629Z,154.07
2023-02-11T03:35:15.224Z,155.57
2023-02-11T03:37:47.477Z,168.35
2023-02-11T03:40:17.172Z,155.98
2023-02-11T03:42:46.160Z,157.10
2023-02-11T03:45:15.832Z,162.38
2023-02-11T03:47:46.369Z,152.40
2023-02-11T03:50:14.941Z,155.93
2023-02-11T03:52:41.507Z,148.32
2023-02-11T03:55:12.978Z,145.98
2023-02-11T03:57:39.500Z,149.23
2023-02-11T04:00:06.703Z,148.02
2023-02-11T04:02:34.299Z,135.80
2023-02-11T04:05:02.430Z,149.68
2023-02-11T04:07:29.262Z,147.57
2023-02-11T04:09:55.912Z,136.23
2023-02-11T04:12:22.368Z,152.38
2023-02-11T04:14:48.846Z,155.05
2023-02-11T04:17:15.337Z,163.80
2023-02-11T04:19:41.865Z,158.90
2023-02-11T04:22:08.477Z,157.95
2023-02-11T04:24:35.268Z,150.25
2023-02-11T04:27:01.840Z,155.07
2023-02-11T04:29:28.441Z,163.65
2023-02-11T04:31:55.481Z,159.45
2023-02-11T04:34:22.149Z,157.52
2023-02-11T04:36:48.660Z,163.27
2023-02-11T04:39:15.140Z,147.30
2023-02-11T04:41:41.681Z,152.27
2023-02-11T04:44:08.068Z,155.40
2023-02-11T04:46:35.764Z,164.48
2023-02-11T04:49:02.708Z,150.48
2023-02-11T04:51:29.270Z,139.18
2023-02-11T04:53:55.741Z,159.02
2023-02-11T04:56:22.188Z,155.88
2023-02-11T04:58:48.624Z,159.48
2023-02-11T05:01:16.176Z,150.15
2023-02-11T05:03:42.917Z,138.73
2023-02-11T05:06:09.912Z,143.95
2023-02-11T05:08:36.369Z,140.75
2023-02-11T05:11:02.821Z,144.55
2023-02-11T05:13:29.519Z,140.93
2023-02-11T05:15:56.011Z,148.63
2023-02-11T05:18:23.030Z,134.35
2023-02-11T05:20:49.441Z,153.70
2023-02-11T05:23:15.910Z,148.38
2023-02-11T05:25:42.393Z,142.77
2023-02-11T05:28:08.954Z,149.07
2023-02-11T05:30:35.602Z,146.07
2023-02-11T05:33:02.108Z,149.80
2023-02-11T05:35:28.531Z,140.65
2023-02-11T05:37:54.962Z,147.50
2023-02-11T05:40:21.524Z,145.93
2023-02-11T05:42:48.011Z,150.77
2023-02-11T05:45:14.574Z,147.88
2023-02-11T05:47:41.053Z,149.18
2023-02-11T05:50:07.579Z,147.23
2023-02-11T05:52:34.099Z,155.77
2023-02-11T05:55:00.728Z,220.60
2023-02-11T05:57:27.198Z,169.20
2023-02-11T05:59:53.697Z,169.55
2023-02-11T06:02:20.288Z,155.82
2023-02-11T06:04:46.940Z,172.95
2023-02-11T06:07:13.364Z,166.80
2023-02-11T06:09:39.832Z,168.23
2023-02-11T06:12:06.389Z,189.73
2023-02-11T06:14:33.874Z,181.10
2023-02-11T06:17:00.939Z,175.40
2023-02-11T06:19:27.841Z,178.82
2023-02-11T06:21:55.594Z,160.13
2023-02-11T06:24:44.312Z,161.15
2023-02-11T06:27:08.517Z,202.85
2023-02-11T06:29:35.005Z,217.35
2023-02-11T06:32:01.869Z,154.35
2023-02-11T06:34:28.357Z,148.63
2023-02-11T06:36:54.833Z,157.00
2023-02-11T06:39:21.297Z,148.65
2023-02-11T06:41:47.811Z,134.23
2023-02-11T06:44:14.309Z,152.82
2023-02-11T06:46:40.870Z,158.23
2023-02-11T06:49:07.318Z,141.82
2023-02-11T06:51:33.827Z,150.80
2023-02-11T06:54:00.275Z,156.73
2023-02-11T06:56:27.586Z,150.75
2023-02-11T06:58:58.179Z,130.02
2023-02-11T07:01:25.463Z,159.18
2023-02-11T07:03:52.265Z,159.35
2023-02-11T07:06:23.899Z,135.15
2023-02-11T07:08:50.595Z,127.22
2023-02-11T07:11:24.235Z,139.85
2023-02-11T07:13:51.783Z,127.45
2023-02-11T07:16:18.866Z,125.82
2023-02-11T07:18:45.884Z,141.25
2023-02-11T07:21:14.188Z,136.10
2023-02-11T07:23:41.328Z,136.98
2023-02-11T07:26:08.810Z,148.65
2023-02-11T07:28:36.046Z,163.13
2023-02-11T07:31:09.648Z,138.43
2023-02-11T07:33:36.867Z,135.07
2023-02-11T07:36:04.644Z,134.55
2023-02-11T07:38:32.174Z,128.38
2023-02-11T07:41:06.102Z,116.78
2023-02-11T07:43:33.335Z,127.72
2023-02-11T07:46:00.154Z,98.03
2023-02-11T07:48:26.589Z,100.50
2023-02-11T07:50:53.013Z,82.22
2023-02-11T07:53:19.588Z,75.55
2023-02-11T07:55:46.058Z,88.28
2023-02-11T07:58:12.500Z,73.35
2023-02-11T08:00:39.051Z,70.85
2023-02-11T08:03:07.847Z,70.15
2023-02-11T08:05:37.473Z,70.40
2023-02-11T08:08:03.982Z,64.15
2023-02-11T08:10:30.453Z,60.80
2023-02-11T08:12:56.929Z,63.53
2023-02-11T08:15:23.582Z,63.33
2023-02-11T08:17:50.003Z,71.95
2023-02-11T08:20:16.987Z,59.33
2023-02-11T08:22:43.520Z,57.95
2023-02-11T08:25:09.924Z,66.97
2023-02-11T08:27:36.423Z,64.50
2023-02-11T08:30:03.040Z,64.97
2023-02-11T08:32:29.653Z,60.42
2023-02-11T08:34:56.081Z,71.05
2023-02-11T08:37:22.874Z,69.38
2023-02-11T08:39:49.376Z,77.32
2023-02-11T08:42:15.796Z,63.92
2023-02-11T08:44:42.367Z,67.70
2023-02-11T08:47:08.867Z,71.13
2023-02-11T08:49:35.474Z,70.35
2023-02-11T08:52:04.191Z,73.60
2023-02-11T08:54:31.070Z,70.38
2023-02-11T08:56:57.567Z,70.32
2023-02-11T08:59:24.108Z,62.55
2023-02-11T09:01:50.745Z,62.58
2023-02-11T09:04:17.255Z,67.70
2023-02-11T09:06:43.817Z,61.08
2023-02-11T09:09:11.206Z,61.03
2023-02-11T09:11:38.073Z,75.80
2023-02-11T09:14:04.594Z,68.78
2023-02-11T09:16:32.734Z,62.42
2023-02-11T09:19:00.169Z,75.47
2023-02-11T09:21:26.793Z,68.60
2023-02-11T09:23:53.699Z,67.80
2023-02-11T09:26:21.350Z,72.55
2023-02-11T09:28:48.423Z,67.90
2023-02-11T09:31:16.590Z,85.13
2023-02-11T09:33:47.837Z,68.70
2023-02-11T09:36:24.517Z,60.20
2023-02-11T09:38:51.166Z,68.45
2023-02-11T09:41:36.439Z,65.72
2023-02-11T09:44:05.099Z,72.88
2023-02-11T09:46:33.173Z,60.90
2023-02-11T09:49:00.093Z,60.28
2023-02-11T09:51:34.045Z,56.58
2023-02-11T09:54:05.556Z,62.97
2023-02-11T09:56:32.136Z,54.42
2023-02-11T09:58:58.558Z,54.97
2023-02-11T10:01:39.404Z,57.22
2023-02-11T14:45:40.579Z,40.20
2023-02-11T14:48:17.148Z,45.97
2023-02-11T14:50:46.591Z,53.65
2023-02-11T14:53:15.410Z,52.88
2023-02-11T14:55:42.783Z,41.78
2023-02-11T14:58:16.631Z,51.47
2023-02-11T15:00:49.227Z,46.67
2023-02-11T15:03:34.355Z,61.65
2023-02-11T15:06:00.793Z,60.30
2023-02-11T15:08:28.370Z,56.35
2023-02-11T15:10:55.486Z,65.85
2023-02-11T15:13:27.178Z,63.78
2023-02-11T15:15:55.693Z,54.45
2023-02-11T15:18:24.413Z,62.47
2023-02-11T15:20:52.231Z,56.35
2023-02-11T15:23:23.297Z,54.20
2023-02-11T15:25:55.878Z,53.13
2023-02-11T15:28:26.845Z,67.93
2023-02-11T15:30:57.701Z,68.20
2023-02-11T15:33:25.550Z,60.10
2023-02-11T15:35:52.320Z,57.95
2023-02-11T15:38:18.837Z,53.90
2023-02-11T15:40:56.060Z,55.92
2023-02-11T15:43:22.637Z,61.05
2023-02-11T15:45:51.879Z,64.75
2023-02-11T15:48:26.854Z,70.97
2023-02-11T15:50:54.976Z,64.28
2023-02-11T15:53:23.802Z,63.30
2023-02-11T15:55:51.361Z,68.75
2023-02-11T15:58:18.036Z,90.68
2023-02-11T16:00:49.812Z,99.80
2023-02-11T16:03:24.078Z,97.43
2023-02-11T16:05:50.845Z,70.95
2023-02-11T16:08:21.634Z,104.38
2023-02-11T16:11:03.264Z,86.55
2023-02-11T16:13:33.647Z,72.22
2023-02-11T16:16:05.144Z,74.22
2023-02-11T16:18:38.363Z,94.85
2023-02-11T16:21:06.765Z,90.18
2023-02-11T16:23:35.735Z,81.13
2023-02-11T16:26:05.792Z,66.43
2023-02-11T16:28:32.843Z,68.03
2023-02-11T16:31:02.393Z,62.10
2023-02-11T16:33:29.141Z,60.70
2023-02-11T16:35:55.669Z,62.25
2023-02-11T16:38:22.130Z,69.85
2023-02-11T16:40:51.864Z,63.38
2023-02-11T16:43:19.871Z,64.57
2023-02-11T16:45:46.792Z,78.50
2023-02-11T16:48:16.454Z,71.13
2023-02-11T16:50:44.816Z,63.70
2023-02-11T16:53:11.737Z,73.65
2023-02-11T16:55:38.858Z,70.35
2023-02-11T16:58:06.464Z,67.60
2023-02-11T17:00:32.995Z,56.35
2023-02-11T17:02:59.551Z,60.00
2023-02-11T17:05:26.411Z,62.08
2023-02-11T17:07:53.008Z,56.53
2023-02-11T17:10:21.839Z,61.53
2023-02-11T17:12:49.202Z,59.55
2023-02-11T17:15:15.732Z,68.03
2023-02-11T17:17:42.295Z,121.32
2023-02-11T17:20:11.176Z,78.78
2023-02-11T17:22:37.681Z,100.13
2023-02-11T17:25:04.249Z,119.68
2023-02-11T17:27:30.772Z,81.72
2023-02-11T17:29:57.254Z,71.55
2023-02-11T17:32:23.858Z,78.47
2023-02-11T17:34:52.399Z,86.07
2023-02-11T17:37:18.814Z,80.75
2023-02-11T17:39:45.371Z,79.25
2023-02-11T17:42:11.978Z,70.15
2023-02-11T17:44:38.478Z,81.57
2023-02-11T17:47:04.943Z,76.82
2023-02-11T17:49:31.393Z,97.15
2023-02-11T17:51:58.026Z,78.35
2023-02-11T17:54:25.065Z,84.68
2023-02-11T17:56:55.150Z,80.95
2023-02-11T17:59:23.593Z,94.80
2023-02-11T18:01:50.034Z,121.45
2023-02-11T18:04:18.499Z,105.00
2023-02-11T18:06:45.031Z,94.80
2023-02-11T18:09:12.085Z,87.25
2023-02-11T18:11:39.735Z,89.80
2023-02-11T18:14:07.810Z,83.13
2023-02-11T18:16:36.537Z,89.63
2023-02-11T18:19:03.260Z,94.85
2023-02-11T18:21:29.830Z,82.00
2023-02-11T18:23:57.068Z,100.05
2023-02-11T18:26:26.263Z,86.65
2023-02-11T18:28:52.773Z,91.43
2023-02-11T18:31:19.527Z,103.05
2023-02-11T18:33:46.197Z,81.93
2023-02-11T18:36:13.765Z,94.68
2023-02-11T18:38:40.451Z,112.13
2023-02-11T18:41:07.507Z,101.40
2023-02-11T18:43:34.615Z,116.80
2023-02-11T18:46:01.931Z,142.90
2023-02-11T18:48:28.555Z,155.63
2023-02-11T18:50:55.463Z,145.68
2023-02-11T18:53:22.488Z,150.57
2023-02-11T18:55:49.331Z,136.38
2023-02-11T18:58:15.923Z,168.43
2023-02-11T19:00:43.839Z,178.40
2023-02-11T19:03:10.531Z,204.93
2023-02-11T19:05:43.689Z,189.57
2023-02-11T19:08:10.621Z,217.80
2023-02-11T19:10:44.302Z,218.85
2023-02-11T19:13:10.835Z,219.43
2023-02-11T19:15:41.357Z,201.85
2023-02-11T19:18:07.866Z,221.23
2023-02-11T19:20:34.408Z,209.75
2023-02-11T19:23:00.996Z,220.80
2023-02-11T19:25:27.537Z,197.45
2023-02-11T19:27:54.035Z,197.77
2023-02-11T19:30:20.644Z,213.82
2023-02-11T19:32:52.457Z,208.88
2023-02-11T19:37:45.889Z,200.70
2023-02-11T19:40:13.115Z,202.18
2023-02-11T19:42:39.642Z,201.88
2023-02-11T19:45:07.416Z,210.35
2023-02-11T19:47:34.134Z,205.73
2023-02-11T19:50:00.729Z,194.15
2023-02-11T19:52:27.333Z,177.50
2023-02-11T19:54:53.756Z,204.82
2023-02-11T19:57:20.160Z,201.15
2023-02-11T19:59:46.570Z,206.85
2023-02-11T20:02:13.244Z,212.73
2023-02-11T20:04:39.778Z,214.18
2023-02-11T20:07:06.382Z,190.50
2023-02-11T20:09:33.065Z,215.63
2023-02-11T20:11:59.618Z,300.52
2023-02-11T20:14:27.939Z,528.38
2023-02-11T20:16:54.759Z,274.10
2023-02-11T20:19:22.307Z,257.75
2023-02-11T20:21:50.796Z,239.13
2023-02-11T20:24:17.704Z,211.15
2023-02-11T20:26:45.305Z,198.50
2023-02-11T20:29:12.251Z,208.13
2023-02-11T20:31:38.978Z,168.43
2023-02-11T20:34:05.508Z,192.52
2023-02-11T20:36:34.137Z,164.70
2023-02-11T20:39:00.652Z,203.75
2023-02-11T20:41:28.581Z,257.25
2023-02-11T20:43:55.438Z,232.73
2023-02-11T20:46:26.123Z,151.38
2023-02-11T20:48:53.116Z,153.80
2023-02-11T20:51:20.686Z,150.52
2023-02-11T20:53:51.452Z,150.25
2023-02-11T20:56:19.506Z,150.90
2023-02-11T20:58:46.337Z,141.52
2023-02-11T21:01:21.904Z,119.88
2023-02-11T21:03:52.555Z,123.60
2023-02-11T21:06:19.806Z,129.98
2023-02-11T21:08:46.400Z,116.95
2023-02-11T21:11:13.093Z,120.72
2023-02-11T21:13:40.540Z,114.93
2023-02-11T21:16:07.995Z,170.20
2023-02-11T21:18:34.924Z,208.63
2023-02-11T21:21:01.474Z,179.70
2023-02-11T21:23:29.155Z,158.63
2023-02-11T21:25:56.666Z,119.50
2023-02-11T21:28:26.487Z,130.98
2023-02-11T21:30:54.100Z,126.22
2023-02-11T21:33:20.897Z,113.50
2023-02-11T21:35:47.549Z,112.57
2023-02-11T21:38:14.285Z,113.28
2023-02-11T21:40:40.844Z,101.53
2023-02-11T21:43:07.429Z,110.78
2023-02-11T21:45:33.924Z,103.07
2023-02-11T21:48:00.443Z,108.93
2023-02-11T21:50:26.860Z,92.78
2023-02-11T21:52:53.261Z,106.63
2023-02-11T21:55:19.700Z,104.15
2023-02-11T21:57:46.171Z,95.10
2023-02-11T22:00:12.993Z,95.28
2023-02-11T22:02:39.473Z,97.00
2023-02-11T22:05:06.036Z,91.43
2023-02-11T22:07:34.667Z,89.82
2023-02-11T22:10:01.190Z,87.57
2023-02-11T22:12:27.641Z,88.38
2023-02-11T22:14:54.046Z,95.85
2023-02-11T22:17:20.538Z,80.85
2023-02-11T22:19:46.957Z,99.72
2023-02-11T22:22:18.128Z,97.38
2023-02-11T22:24:45.937Z,91.13
2023-02-11T22:27:13.253Z,84.50
2023-02-11T22:29:39.957Z,90.05
2023-02-11T22:32:06.740Z,98.40
2023-02-11T22:34:33.260Z,95.57
2023-02-11T22:37:01.071Z,83.45
2023-02-11T22:39:27.489Z,88.43
2023-02-11T22:41:56.441Z,87.15
2023-02-11T22:44:26.240Z,78.15
2023-02-11T22:46:53.074Z,84.85
2023-02-11T22:49:21.217Z,93.35
2023-02-11T22:51:48.233Z,99.65
2023-02-11T22:54:15.796Z,94.00
2023-02-11T22:56:42.217Z,95.22
2023-02-11T22:59:10.729Z,83.75
2023-02-11T23:01:37.509Z,86.47
2023-02-11T23:04:05.036Z,78.22
2023-02-11T23:06:31.795Z,80.32
2023-02-11T23:08:58.305Z,86.63
2023-02-11T23:11:25.950Z,76.47
2023-02-11T23:13:52.967Z,82.88
2023-02-11T23:16:24.097Z,80.65
2023-02-11T23:18:51.331Z,53.70
2023-02-11T23:21:21.224Z,78.55
2023-02-11T23:23:48.280Z,80.22
2023-02-11T23:26:16.064Z,85.00
2023-02-11T23:28:45.147Z,91.95
2023-02-11T23:31:15.488Z,86.68
2023-02-11T23:33:42.041Z,89.38
2023-02-11T23:36:08.739Z,88.57
2023-02-11T23:38:35.251Z,82.38
2023-02-11T23:41:01.676Z,81.07
2023-02-11T23:43:28.088Z,84.88
2023-02-11T23:45:54.834Z,98.28
2023-02-11T23:48:21.624Z,94.93
2023-02-11T23:50:48.229Z,77.55
2023-02-11T23:53:14.744Z,79.53
2023-02-11T23:55:42.140Z,74.82
2023-02-11T23:58:08.809Z,73.30
